METAR Codé : 2020/08/14 22:00 LFLC 142200Z AUTO 03001KT 9999 FEW064 17/14 Q1017 NOSIG.
Observations météorologiques décodées (METAR) à l'aéroport Clermont-Ferrand / Aulnat

Nous sommes le 15/08/2020 à 00:23 CEST

Date de création du bulletin : le 14/08/2020 à 24:00 CEST (22:00 UTC).

Temps: AUTO
Vent: très légère brise secteur Nord-Est (030°) à 1 knots (1 mph, 2 km/h, Force 1)
Visibilité: 10 km ou plus
Nuages: quelques nuages ​​à 6400 pieds
Température: 17 °C
Point de rosée: 14 °C
Humidité: 82%
Pression: 1017 hPa
Temps: Aucun changement significatif (NO SIGnificative changes) n'est prévu dans les deux heures à venir.
Temps: